Time;durP1;ratioP1;P1;durP2;ratioP2;P2;SDS_P1;SDS_P2;PMS_P1;PMS_P2;Temp;Humidity;BMP_temperature;BMP_pressure;BME280_temperature;BME280_humidity;BME280_pressure;Samples;Min_cycle;Max_cycle;Signal;HPM_P1;HPM_P2
2021/05/16 00:00:24;;;;;;;12.05;2.42;;;;;;;11.29;82.17;100411.91;1754240;80;21062;-41
2021/05/16 00:02:52;;;;;;;11.50;2.40;;;;;;;11.25;82.31;100410.28;1757939;80;20994;-40
2021/05/16 00:05:20;;;;;;;9.45;2.50;;;;;;;11.20;82.44;100412.50;1759662;80;21085;-41
2021/05/16 00:07:46;;;;;;;6.22;2.62;;;;;;;11.15;82.84;100414.34;1762065;80;21112;-41
2021/05/16 00:10:14;;;;;;;17.37;1.90;;;;;;;11.08;83.09;100416.66;1751109;80;21009;-42
2021/05/16 00:12:43;;;;;;;29.05;3.22;;;;;;;11.01;83.43;100412.50;1754803;80;21160;-41
2021/05/16 00:15:12;;;;;;;8.85;2.22;;;;;;;10.97;83.80;100415.59;1769939;80;21581;-41
2021/05/16 00:17:38;;;;;;;59.93;5.03;;;;;;;10.92;84.07;100414.38;1771400;80;21662;-41
2021/05/16 00:20:13;;;;;;;23.83;3.50;;;;;;;10.88;84.27;100414.03;1774975;80;20984;-41
2021/05/16 00:22:37;;;;;;;115.47;9.78;;;;;;;10.83;84.48;100414.58;1752584;80;21665;-41
2021/05/16 00:25:07;;;;;;;47.05;5.20;;;;;;;10.79;84.59;100420.70;1758909;80;20923;-40
2021/05/16 00:27:35;;;;;;;41.88;4.25;;;;;;;10.74;84.73;100417.36;1762736;80;20883;-40
2021/05/16 00:30:05;;;;;;;136.77;9.33;;;;;;;10.70;84.81;100420.87;1770186;80;21602;-40
2021/05/16 00:32:32;;;;;;;62.73;5.95;;;;;;;10.66;85.07;100420.09;1759817;80;21086;-40
2021/05/16 00:34:58;;;;;;;38.83;4.28;;;;;;;10.63;85.27;100426.17;1761105;80;21013;-39
2021/05/16 00:37:25;;;;;;;12.58;3.47;;;;;;;10.63;85.60;100423.58;1764046;80;21005;-40
2021/05/16 00:39:51;;;;;;;6.92;2.22;;;;;;;10.63;85.73;100429.22;1765695;80;21014;-41
2021/05/16 00:42:18;;;;;;;14.20;3.37;;;;;;;10.61;85.88;100425.35;1757096;80;21131;-40
2021/05/16 00:45:09;;;;;;;15.95;2.15;;;;;;;10.58;86.04;100422.83;1745286;80;21066;-41
2021/05/16 00:47:37;;;;;;;49.67;3.80;;;;;;;10.57;86.31;100418.95;1749970;80;21006;-41
2021/05/16 00:50:06;;;;;;;91.17;7.22;;;;;;;10.53;86.57;100415.59;1766395;80;21403;-42
2021/05/16 00:52:34;;;;;;;22.07;3.42;;;;;;;10.49;86.77;100414.78;1759936;80;21073;-41
2021/05/16 00:55:01;;;;;;;23.55;2.87;;;;;;;10.47;87.03;100411.80;1759131;80;20939;-41
2021/05/16 00:57:27;;;;;;;46.35;4.75;;;;;;;10.46;87.30;100417.86;1752845;80;21155;-41
2021/05/16 00:59:54;;;;;;;77.97;6.70;;;;;;;10.46;87.49;100417.86;1761759;80;21006;-40
2021/05/16 01:02:20;;;;;;;60.12;5.95;;;;;;;10.48;87.71;100425.16;1766689;80;20935;-41
2021/05/16 01:04:47;;;;;;;37.88;4.37;;;;;;;10.49;87.94;100419.96;1758721;80;21618;-41
2021/05/16 01:07:13;;;;;;;42.03;4.17;;;;;;;10.52;87.93;100419.06;1768368;80;21706;-41
2021/05/16 01:09:42;;;;;;;41.73;4.72;;;;;;;10.53;87.92;100416.89;1766010;80;21215;-40
2021/05/16 01:12:10;;;;;;;46.10;4.15;;;;;;;10.54;87.85;100418.59;1746294;80;21104;-41
2021/05/16 01:14:45;;;;;;;26.80;3.08;;;;;;;10.56;87.92;100414.66;1744328;80;21078;-42
2021/05/16 01:17:11;;;;;;;23.87;3.50;;;;;;;10.58;87.84;100413.77;1755457;80;20887;-41
2021/05/16 01:19:40;;;;;;;9.08;2.27;;;;;;;10.56;87.57;100424.59;1753102;80;20982;-39
2021/05/16 01:22:07;;;;;;;4.12;2.08;;;;;;;10.49;87.53;100420.42;1766214;80;21633;-39
2021/05/16 01:24:37;;;;;;;4.60;1.90;;;;;;;10.41;87.67;100425.73;1765433;80;21613;-39
2021/05/16 01:27:13;;;;;;;12.63;2.40;;;;;;;10.33;87.68;100427.13;1750079;80;20926;-40
2021/05/16 01:29:40;;;;;;;21.30;2.52;;;;;;;10.25;87.77;100431.59;1747236;80;20990;-40
2021/05/16 01:32:11;;;;;;;45.10;4.53;;;;;;;10.18;87.92;100432.55;1754419;80;21037;-39
2021/05/16 01:34:35;;;;;;;65.40;4.80;;;;;;;10.12;88.24;100433.95;1756925;80;21102;-39
2021/05/16 01:37:02;;;;;;;47.75;5.03;;;;;;;10.13;88.79;100428.77;1747052;80;20929;-39
2021/05/16 01:39:29;;;;;;;89.97;16.37;;;;;;;10.17;89.18;100425.67;1753824;80;21595;-39
2021/05/16 01:41:57;;;;;;;64.97;9.40;;;;;;;10.24;89.57;100430.31;1757583;80;20935;-39
2021/05/16 01:44:25;;;;;;;55.33;7.17;;;;;;;10.33;90.07;100431.43;1752707;80;21041;-41
2021/05/16 01:46:52;;;;;;;52.00;7.22;;;;;;;10.42;90.56;100426.56;1756562;80;21064;-41
2021/05/16 01:49:19;;;;;;;66.72;7.90;;;;;;;10.46;90.62;100426.92;1757782;80;20954;-41
2021/05/16 01:51:45;;;;;;;84.77;6.42;;;;;;;10.44;90.60;100431.27;1738191;80;21124;-39
2021/05/16 01:54:13;;;;;;;57.95;6.97;;;;;;;10.41;90.65;100428.32;1741297;80;22257;-39
2021/05/16 01:56:39;;;;;;;54.58;8.95;;;;;;;10.37;90.41;100430.95;1750604;80;21658;-39
2021/05/16 01:59:06;;;;;;;38.78;7.45;;;;;;;10.33;90.33;100426.25;1765619;80;21605;-39
2021/05/16 02:01:32;;;;;;;32.10;3.87;;;;;;;10.37;90.76;100418.88;1726907;80;20978;-41
2021/05/16 02:04:00;;;;;;;8.23;2.50;;;;;;;10.46;91.25;100424.33;1751387;80;21624;-40
2021/05/16 02:06:27;;;;;;;28.05;3.37;;;;;;;10.52;91.49;100421.66;1749133;80;21571;-41
2021/05/16 02:08:54;;;;;;;39.98;6.95;;;;;;;10.55;91.69;100424.18;1774110;80;20998;-39
2021/05/16 02:11:25;;;;;;;46.60;7.67;;;;;;;10.55;91.57;100429.78;1741023;80;21237;-39
2021/05/16 02:13:54;;;;;;;38.92;6.30;;;;;;;10.45;91.25;100431.68;1771718;80;21575;-41
2021/05/16 02:16:21;;;;;;;51.28;10.35;;;;;;;10.38;91.32;100435.24;1749884;80;21685;-39
2021/05/16 02:18:50;;;;;;;54.10;10.70;;;;;;;10.30;91.24;100434.95;1760705;80;20962;-39
2021/05/16 02:21:18;;;;;;;49.58;9.80;;;;;;;10.24;91.10;100440.23;1741414;80;20933;-41
2021/05/16 02:23:47;;;;;;;39.38;10.32;;;;;;;10.18;91.05;100440.31;1751017;80;21118;-40
2021/05/16 02:26:15;;;;;;;40.58;10.58;;;;;;;10.12;91.09;100436.55;1746117;80;21002;-41
2021/05/16 02:28:42;;;;;;;28.25;6.53;;;;;;;10.07;91.14;100437.91;1761555;80;21597;-41
2021/05/16 02:31:10;;;;;;;86.35;24.43;;;;;;;10.05;91.35;100437.95;1742532;80;21693;-40
2021/05/16 02:33:37;;;;;;;89.07;24.50;;;;;;;10.06;91.52;100437.06;1726439;82;21015;-41
2021/05/16 02:36:04;;;;;;;67.32;22.42;;;;;;;10.04;91.37;100438.83;1746310;80;21093;-40
2021/05/16 02:38:31;;;;;;;82.20;26.90;;;;;;;10.01;91.27;100441.47;1752213;80;21038;-40
2021/05/16 02:40:58;;;;;;;59.50;20.35;;;;;;;9.99;91.19;100444.95;1754775;80;21056;-41
2021/05/16 02:43:25;;;;;;;56.28;19.15;;;;;;;9.96;91.19;100447.59;1761556;80;21042;-40
2021/05/16 02:45:51;;;;;;;63.00;18.48;;;;;;;9.95;91.22;100446.72;1757381;80;21131;-40
2021/05/16 02:48:20;;;;;;;57.40;14.07;;;;;;;9.95;91.28;100448.01;1769042;80;21104;-41
2021/05/16 02:50:47;;;;;;;33.40;11.80;;;;;;;9.97;91.38;100448.84;1758899;80;21081;-41
2021/05/16 02:53:17;;;;;;;26.33;7.53;;;;;;;10.00;91.48;100450.11;1763366;80;21346;-41
2021/05/16 02:55:45;;;;;;;18.80;7.03;;;;;;;10.05;91.60;100449.59;1748453;80;21883;-40
2021/05/16 02:58:11;;;;;;;21.12;7.42;;;;;;;10.11;91.73;100452.95;1764453;80;21563;-41
2021/05/16 03:00:41;;;;;;;28.23;8.45;;;;;;;10.18;91.79;100458.42;1766504;80;21173;-40
2021/05/16 03:03:08;;;;;;;24.72;7.70;;;;;;;10.25;91.95;100454.00;1754170;80;21097;-41
2021/05/16 03:05:35;;;;;;;17.20;5.20;;;;;;;10.34;92.05;100458.58;1763341;80;21081;-40
2021/05/16 03:08:02;;;;;;;19.50;5.92;;;;;;;10.43;92.06;100459.33;1755071;80;21029;-40
2021/05/16 03:10:29;;;;;;;19.87;5.83;;;;;;;10.52;92.00;100459.18;1722076;80;20978;-40
2021/05/16 03:12:56;;;;;;;21.02;5.97;;;;;;;10.59;91.94;100454.30;1763754;80;21079;-41
2021/05/16 03:15:23;;;;;;;10.78;5.28;;;;;;;10.69;91.99;100459.29;1768704;80;20887;-41
2021/05/16 03:17:50;;;;;;;18.75;5.78;;;;;;;10.78;91.96;100456.55;1769285;80;20986;-41
2021/05/16 03:20:16;;;;;;;19.90;6.20;;;;;;;10.88;91.94;100458.06;1742282;80;21010;-40
2021/05/16 03:22:43;;;;;;;13.03;5.12;;;;;;;10.98;91.83;100457.44;1753184;80;20950;-41
2021/05/16 03:25:11;;;;;;;6.72;3.08;;;;;;;11.09;91.64;100456.36;1753486;80;21086;-41
2021/05/16 03:27:38;;;;;;;10.65;3.87;;;;;;;11.19;91.49;100458.72;1745702;80;21033;-40
2021/05/16 03:30:08;;;;;;;15.90;3.35;;;;;;;11.30;91.21;100457.66;1748359;80;20930;-41
2021/05/16 03:32:36;;;;;;;19.73;3.95;;;;;;;11.40;90.88;100454.44;1756318;80;20882;-41
2021/05/16 03:35:07;;;;;;;74.37;6.85;;;;;;;11.53;90.49;100455.85;1769297;80;20926;-42
2021/05/16 03:37:34;;;;;;;48.50;6.10;;;;;;;11.68;90.16;100461.13;1761143;80;21079;-40
2021/05/16 03:40:00;;;;;;;22.37;3.85;;;;;;;11.84;89.84;100456.44;1760537;80;21081;-41
2021/05/16 03:42:27;;;;;;;42.83;5.80;;;;;;;12.03;89.64;100456.91;1768867;80;21025;-40
2021/05/16 03:44:55;;;;;;;27.85;4.70;;;;;;;12.21;89.23;100455.58;1747681;80;20903;-41
2021/05/16 03:47:23;;;;;;;18.50;5.03;;;;;;;12.40;88.73;100459.45;1752377;80;21073;-41
2021/05/16 03:49:49;;;;;;;19.05;4.87;;;;;;;12.63;88.41;100452.33;1754338;80;21891;-41
2021/05/16 03:52:19;;;;;;;34.08;6.80;;;;;;;12.94;88.01;100454.94;1772837;80;21440;-41
2021/05/16 03:54:45;;;;;;;45.60;6.45;;;;;;;13.30;87.42;100450.02;1746740;80;20882;-41
2021/05/16 03:57:12;;;;;;;42.85;5.22;;;;;;;13.70;86.52;100450.58;1773944;80;21576;-39
2021/05/16 03:59:38;;;;;;;84.42;9.13;;;;;;;14.14;85.30;100448.72;1767850;80;21645;-42
2021/05/16 04:02:05;;;;;;;129.65;10.85;;;;;;;14.54;84.04;100449.58;1773549;80;22043;-39
2021/05/16 04:04:31;;;;;;;131.63;12.00;;;;;;;14.96;82.57;100453.33;1774224;80;20911;-41
2021/05/16 04:06:58;;;;;;;163.28;13.13;;;;;;;15.34;80.68;100449.27;1774048;80;20990;-41
2021/05/16 04:10:22;;;;;;;109.20;10.70;;;;;;;15.90;77.83;100443.67;1815334;79;22538;-40
2021/05/16 04:12:49;;;;;;;118.87;9.33;;;;;;;16.15;76.17;100445.27;1788481;80;21558;-40
2021/05/16 04:15:16;;;;;;;75.83;6.05;;;;;;;16.38;74.68;100450.36;1788434;80;21029;-39
2021/05/16 04:17:42;;;;;;;36.05;4.17;;;;;;;16.65;73.03;100448.77;1788517;80;21444;-40
2021/05/16 04:20:12;;;;;;;45.88;4.67;;;;;;;16.85;71.05;100444.43;1788625;80;20985;-39
2021/05/16 04:22:38;;;;;;;41.83;5.37;;;;;;;16.89;68.75;100455.13;1788441;80;21038;-41
2021/05/16 04:25:06;;;;;;;46.05;5.37;;;;;;;16.81;67.47;100452.02;1788602;80;20906;-41
2021/05/16 04:27:34;;;;;;;15.23;3.58;;;;;;;16.74;67.54;100452.75;1788541;80;21094;-40
2021/05/16 04:30:00;;;;;;;33.28;3.42;;;;;;;16.75;67.68;100453.14;1788533;80;20878;-41
2021/05/16 04:32:27;;;;;;;14.45;2.92;;;;;;;16.83;67.22;100454.11;1788598;80;21020;-41
2021/05/16 04:34:54;;;;;;;14.75;2.72;;;;;;;16.98;66.78;100458.23;1788635;80;20953;-40
2021/05/16 04:37:21;;;;;;;13.72;3.20;;;;;;;17.04;64.77;100456.23;1788602;80;20941;-40
2021/05/16 04:39:47;;;;;;;12.73;2.55;;;;;;;17.00;64.68;100465.14;1788585;80;21093;-40
2021/05/16 04:42:14;;;;;;;17.40;2.72;;;;;;;16.98;65.13;100464.77;1788547;80;20966;-41
2021/05/16 04:44:40;;;;;;;17.87;3.20;;;;;;;17.01;64.94;100472.06;1788529;80;20969;-41
2021/05/16 04:47:08;;;;;;;17.05;2.72;;;;;;;17.05;64.66;100463.16;1788478;80;20950;-41
2021/05/16 04:49:37;;;;;;;13.65;2.25;;;;;;;17.18;64.36;100473.08;1788343;80;20949;-40
2021/05/16 04:52:04;;;;;;;7.15;2.65;;;;;;;17.28;64.60;100470.86;1767827;80;21046;-41
2021/05/16 04:54:31;;;;;;;6.33;2.00;;;;;;;17.58;64.75;100476.42;1757413;81;20954;-41
2021/05/16 04:56:57;;;;;;;8.80;2.12;;;;;;;17.97;62.84;100466.72;1757452;81;20966;-41
2021/05/16 04:59:24;;;;;;;7.20;2.30;;;;;;;18.17;61.55;100471.47;1757207;81;20985;-40
2021/05/16 05:01:50;;;;;;;6.05;2.25;;;;;;;18.20;61.75;100474.78;1757277;81;20993;-41
2021/05/16 05:04:17;;;;;;;11.53;2.22;;;;;;;18.27;61.43;100475.78;1757303;81;21085;-41
2021/05/16 05:06:43;;;;;;;8.48;1.90;;;;;;;18.45;61.14;100479.23;1757255;81;20917;-41
2021/05/16 05:09:10;;;;;;;8.48;1.82;;;;;;;18.72;60.67;100474.34;1752267;81;21097;-40
2021/05/16 05:11:37;;;;;;;8.00;1.80;;;;;;;19.12;60.08;100480.59;1744342;82;21578;-41
2021/05/16 05:14:04;;;;;;;7.58;1.90;;;;;;;19.32;58.46;100474.70;1744395;82;21510;-40
2021/05/16 05:16:30;;;;;;;10.25;1.67;;;;;;;19.58;58.75;100471.95;1744112;82;21188;-40
2021/05/16 05:18:57;;;;;;;4.62;1.60;;;;;;;20.12;57.99;100473.31;1744171;82;20966;-42
2021/05/16 05:21:23;;;;;;;4.42;2.27;;;;;;;20.42;56.35;100470.28;1743843;82;20930;-40
2021/05/16 05:23:50;;;;;;;6.50;1.52;;;;;;;20.79;56.03;100471.98;1743766;82;20985;-41
2021/05/16 05:26:17;;;;;;;7.78;1.87;;;;;;;21.23;55.33;100475.48;1722241;82;21581;-41
2021/05/16 05:28:43;;;;;;;10.65;1.75;;;;;;;21.48;54.59;100477.38;1743696;82;21783;-41
2021/05/16 05:31:10;;;;;;;7.87;2.10;;;;;;;21.66;53.77;100482.45;1743687;82;21432;-41
2021/05/16 05:33:38;;;;;;;8.70;2.20;;;;;;;21.81;53.14;100484.06;1743755;82;20879;-41
2021/05/16 05:36:05;;;;;;;8.05;1.85;;;;;;;21.95;52.13;100481.83;1743747;82;21042;-42
2021/05/16 05:38:31;;;;;;;7.47;1.72;;;;;;;21.91;51.08;100480.84;1743848;82;20950;-41
2021/05/16 05:40:59;;;;;;;10.15;2.10;;;;;;;22.03;51.56;100480.50;1743587;82;20990;-42
2021/05/16 05:43:26;;;;;;;15.48;2.30;;;;;;;22.17;50.93;100474.31;1743657;82;20918;-41
2021/05/16 05:45:52;;;;;;;20.80;1.95;;;;;;;22.37;50.97;100471.17;1743794;82;21037;-40
2021/05/16 05:48:19;;;;;;;10.53;2.10;;;;;;;22.38;50.24;100468.91;1743500;82;20993;-41
2021/05/16 05:50:45;;;;;;;10.58;1.85;;;;;;;22.51;50.89;100476.86;1743729;81;21022;-41
2021/05/16 05:53:12;;;;;;;35.03;2.40;;;;;;;22.74;50.64;100475.74;1743754;82;21090;-40
2021/05/16 05:55:39;;;;;;;26.10;2.22;;;;;;;22.79;49.22;100478.89;1743525;82;20934;-41
2021/05/16 05:58:06;;;;;;;16.90;2.37;;;;;;;22.92;48.44;100478.88;1743661;82;20950;-41
2021/05/16 06:00:32;;;;;;;10.95;2.50;;;;;;;23.07;48.57;100478.73;1743725;82;21587;-41
2021/05/16 06:02:59;;;;;;;9.95;2.00;;;;;;;23.17;48.14;100478.45;1743680;82;21626;-42
2021/05/16 06:05:27;;;;;;;8.58;2.20;;;;;;;23.37;47.97;100473.58;1743762;82;21763;-41
2021/05/16 06:07:54;;;;;;;15.10;2.22;;;;;;;23.52;47.89;100480.38;1743695;82;20898;-41
2021/05/16 06:10:23;;;;;;;9.15;1.90;;;;;;;23.68;47.48;100476.62;1747611;82;20910;-41
2021/05/16 06:12:49;;;;;;;15.83;2.10;;;;;;;23.61;47.19;100479.32;1749136;82;21013;-41
2021/05/16 06:15:16;;;;;;;11.65;2.00;;;;;;;23.59;47.69;100471.99;1749257;82;20926;-41
2021/05/16 06:17:42;;;;;;;6.70;2.42;;;;;;;23.67;47.42;100473.61;1749289;82;20998;-42
2021/05/16 06:20:10;;;;;;;22.62;2.08;;;;;;;23.63;47.81;100472.16;1749108;82;21417;-40
2021/05/16 06:22:37;;;;;;;15.85;2.20;;;;;;;23.46;46.30;100471.58;1749161;82;20930;-42
2021/05/16 06:25:05;;;;;;;11.65;1.98;;;;;;;23.36;47.44;100478.47;1749211;82;20970;-41
2021/05/16 06:27:32;;;;;;;14.65;2.47;;;;;;;23.32;47.25;100474.37;1749183;82;20898;-41
2021/05/16 06:29:58;;;;;;;8.75;1.85;;;;;;;23.42;47.20;100478.05;1749211;82;21039;-41
2021/05/16 06:32:26;;;;;;;12.15;1.60;;;;;;;23.52;47.51;100475.09;1749258;82;20886;-40
2021/05/16 06:34:52;;;;;;;6.20;1.42;;;;;;;23.82;46.11;100473.78;1749317;82;20966;-41
2021/05/16 06:37:19;;;;;;;9.70;1.60;;;;;;;24.17;45.44;100476.59;1749110;82;21041;-41
2021/05/16 06:39:45;;;;;;;4.95;1.20;;;;;;;24.40;44.63;100469.53;1749252;82;20934;-41
2021/05/16 06:42:12;;;;;;;5.75;1.27;;;;;;;24.39;43.99;100467.84;1749211;82;21039;-41
2021/05/16 06:44:38;;;;;;;12.75;1.42;;;;;;;24.47;44.47;100460.65;1749208;82;20974;-42
2021/05/16 06:47:05;;;;;;;8.00;1.60;;;;;;;24.47;44.83;100455.36;1749276;82;21005;-42
2021/05/16 06:49:33;;;;;;;9.75;1.70;;;;;;;24.55;44.68;100452.95;1749277;82;20986;-40
2021/05/16 06:51:59;;;;;;;2.42;0.70;;;;;;;24.57;43.37;100456.31;1749159;80;21033;-40
2021/05/16 06:54:26;;;;;;;5.20;0.70;;;;;;;24.61;41.84;100457.75;1749240;82;21087;-40
2021/05/16 06:56:53;;;;;;;0.80;0.60;;;;;;;24.78;39.58;100447.23;1749136;82;21447;-40
2021/05/16 06:59:20;;;;;;;1.15;0.42;;;;;;;24.92;38.41;100452.75;1749260;82;20903;-40
2021/05/16 07:01:46;;;;;;;1.07;0.60;;;;;;;24.93;38.64;100450.92;1749166;82;20990;-40
2021/05/16 07:04:13;;;;;;;4.17;0.70;;;;;;;24.95;38.65;100454.30;1749208;82;21036;-40
2021/05/16 07:06:40;;;;;;;3.85;0.78;;;;;;;24.88;38.49;100447.81;1747984;81;21033;-40
2021/05/16 07:09:07;;;;;;;4.65;0.50;;;;;;;24.93;39.10;100449.14;1748448;81;20950;-39
2021/05/16 07:11:35;;;;;;;3.30;0.65;;;;;;;25.16;37.83;100453.08;1743545;82;21595;-40
2021/05/16 07:14:03;;;;;;;24.32;1.05;;;;;;;25.32;36.97;100446.05;1722604;82;21589;-43
2021/05/16 07:16:29;;;;;;;3.70;0.47;;;;;;;25.49;36.80;100446.50;1743677;82;20965;-40
2021/05/16 07:18:56;;;;;;;3.05;0.37;;;;;;;25.60;36.37;100450.45;1743535;82;21100;-41
2021/05/16 07:21:23;;;;;;;1.42;0.60;;;;;;;25.72;36.16;100449.06;1743421;82;21649;-43
2021/05/16 07:23:51;;;;;;;5.42;0.90;;;;;;;25.85;35.28;100450.20;1743547;82;20910;-43
2021/05/16 07:26:18;;;;;;;2.87;1.07;;;;;;;25.86;35.46;100442.61;1743451;82;21033;-43
2021/05/16 07:28:45;;;;;;;13.25;1.87;;;;;;;26.05;35.47;100441.42;1743693;81;20973;-42
2021/05/16 07:31:12;;;;;;;3.05;1.07;;;;;;;26.08;35.40;100438.52;1743304;82;21072;-43
2021/05/16 07:33:40;;;;;;;7.67;1.37;;;;;;;26.12;35.40;100447.06;1737201;82;20983;-42
2021/05/16 07:36:07;;;;;;;9.08;1.10;;;;;;;26.34;35.10;100433.33;1743503;82;21470;-42
2021/05/16 07:38:34;;;;;;;5.20;0.90;;;;;;;26.58;34.85;100436.98;1724214;80;20983;-42
2021/05/16 07:41:00;;;;;;;10.82;4.08;;;;;;;26.68;34.44;100431.72;1709837;83;21059;-43
2021/05/16 07:43:27;;;;;;;5.92;1.47;;;;;;;26.63;35.21;100429.45;1710136;84;21036;-42
2021/05/16 07:45:54;;;;;;;4.97;1.20;;;;;;;26.75;34.43;100426.72;1710012;84;20907;-43
2021/05/16 07:48:28;;;;;;;5.17;1.02;;;;;;;26.85;33.41;100421.48;1675956;85;20882;-42
2021/05/16 07:50:49;;;;;;;2.87;1.10;;;;;;;26.98;33.30;100425.21;1709457;83;21003;-42
2021/05/16 07:53:17;;;;;;;8.45;1.27;;;;;;;27.21;33.22;100423.14;1676049;85;20998;-42
2021/05/16 07:55:43;;;;;;;10.85;1.60;;;;;;;27.36;33.90;100432.88;1710106;84;21088;-42
2021/05/16 07:58:10;;;;;;;23.20;2.45;;;;;;;27.49;33.47;100430.80;1710049;84;20998;-41
2021/05/16 08:00:38;;;;;;;7.30;1.67;;;;;;;27.62;34.14;100431.02;1710071;83;20848;-42
2021/05/16 08:03:05;;;;;;;12.55;1.75;;;;;;;27.85;31.83;100422.75;1710178;83;21085;-42
2021/05/16 08:05:31;;;;;;;13.53;2.00;;;;;;;28.01;32.02;100421.69;1710076;83;20987;-42
2021/05/16 08:07:58;;;;;;;10.53;1.80;;;;;;;28.19;31.42;100426.30;1709946;84;20997;-43
2021/05/16 08:10:25;;;;;;;17.42;2.92;;;;;;;28.28;30.22;100426.75;1710343;82;20951;-42
2021/05/16 08:12:52;;;;;;;16.45;2.12;;;;;;;28.32;30.28;100421.48;1713370;82;21011;-42
2021/05/16 08:15:18;;;;;;;8.85;1.95;;;;;;;28.39;30.65;100423.91;1748945;82;20969;-42
2021/05/16 08:17:45;;;;;;;12.60;1.85;;;;;;;28.32;32.79;100429.47;1727215;82;22218;-42
2021/05/16 08:20:13;;;;;;;11.12;1.45;;;;;;;28.28;30.98;100423.24;1726352;82;21628;-43
2021/05/16 08:22:39;;;;;;;6.90;1.50;;;;;;;28.18;30.84;100428.62;1747220;82;20890;-42
2021/05/16 08:25:09;;;;;;;3.80;1.47;;;;;;;28.23;30.74;100413.05;1730536;82;21037;-42
2021/05/16 08:27:36;;;;;;;11.00;2.05;;;;;;;28.26;30.62;100408.77;1748721;82;20990;-42
2021/05/16 08:30:04;;;;;;;12.23;1.37;;;;;;;28.20;30.44;100398.72;1747793;82;21010;-42
2021/05/16 08:32:31;;;;;;;2.87;1.00;;;;;;;28.26;28.58;100399.45;1748937;82;21106;-42
2021/05/16 08:34:58;;;;;;;14.23;1.45;;;;;;;28.25;27.61;100395.12;1748971;82;20938;-42
2021/05/16 08:37:24;;;;;;;13.98;1.00;;;;;;;28.22;29.13;100398.08;1749100;82;20994;-42
2021/05/16 08:39:51;;;;;;;3.50;1.10;;;;;;;28.30;27.15;100400.02;1749141;82;20946;-43
2021/05/16 08:42:18;;;;;;;12.28;1.57;;;;;;;28.28;28.93;100402.81;1745199;82;20983;-42
2021/05/16 08:44:45;;;;;;;28.07;2.15;;;;;;;28.45;29.49;100405.70;1736979;82;21092;-42
2021/05/16 08:47:13;;;;;;;8.90;1.22;;;;;;;28.50;28.88;100406.09;1737083;82;20950;-42
2021/05/16 08:49:40;;;;;;;10.20;1.70;;;;;;;28.45;29.06;100401.70;1737019;82;20961;-42
2021/05/16 08:52:07;;;;;;;13.20;1.55;;;;;;;28.67;29.26;100399.14;1736860;82;20969;-43
2021/05/16 08:54:33;;;;;;;8.20;1.70;;;;;;;28.91;27.44;100403.10;1737093;82;20938;-42
2021/05/16 08:57:00;;;;;;;13.50;2.35;;;;;;;29.04;26.32;100398.74;1737162;82;21086;-42
2021/05/16 08:59:27;;;;;;;14.75;1.70;;;;;;;29.13;25.81;100397.83;1744921;82;20986;-42
2021/05/16 09:01:58;;;;;;;16.12;6.50;;;;;;;29.24;24.96;100393.63;1749067;82;20914;-42
2021/05/16 09:04:37;;;;;;;7.10;2.05;;;;;;;29.37;24.37;100392.38;1749108;81;21017;-43
2021/05/16 09:07:04;;;;;;;8.30;1.15;;;;;;;29.36;22.85;100392.05;1749247;81;20918;-42
2021/05/16 09:09:39;;;;;;;2.65;1.12;;;;;;;29.21;22.31;100392.59;1748552;82;21078;-42
2021/05/16 09:12:14;;;;;;;5.92;1.27;;;;;;;28.96;22.82;100392.83;1746715;82;21555;-42
2021/05/16 09:14:51;;;;;;;;;;;;;;;28.60;23.98;100395.41;1750572;82;20978;-42
2021/05/16 09:17:34;;;;;;;12.55;2.10;;;;;;;28.31;23.00;100389.72;1748888;82;20174;-42
2021/05/16 09:20:10;;;;;;;6.55;1.30;;;;;;;28.13;23.62;100390.91;1746760;82;20986;-43
2021/05/16 09:22:44;;;;;;;;;;;;;;;27.99;23.51;100394.88;1750026;82;21086;-43
2021/05/16 09:25:22;;;;;;;25.92;1.30;;;;;;;27.81;23.16;100389.80;1743575;82;20169;-43
2021/05/16 09:27:51;;;;;;;10.88;0.93;;;;;;;27.56;24.45;100387.74;1745303;82;21002;-42
2021/05/16 09:30:23;;;;;;;9.15;0.98;;;;;;;27.49;24.20;100387.42;1742786;82;21610;-43
2021/05/16 09:32:56;;;;;;;5.65;0.65;;;;;;;27.40;23.76;100385.12;1734061;82;20942;-42
2021/05/16 09:35:40;;;;;;;6.97;0.70;;;;;;;27.43;24.12;100382.20;1723067;82;21079;-42
2021/05/16 09:38:11;;;;;;;6.50;0.60;;;;;;;27.66;23.76;100386.75;1739681;82;21005;-43
2021/05/16 09:40:44;;;;;;;3.12;0.98;;;;;;;28.14;22.49;100374.83;1727972;82;21392;-42
2021/05/16 09:43:25;;;;;;;0.82;0.47;;;;;;;28.57;21.88;100365.09;1717915;83;20992;-42
2021/05/16 09:46:01;;;;;;;56.92;2.25;;;;;;;28.95;21.81;100375.17;1717789;83;20958;-42
2021/05/16 09:48:41;;;;;;;3.02;0.70;;;;;;;29.25;22.65;100371.31;1735922;82;21104;-42
2021/05/16 09:51:19;;;;;;;4.92;0.53;;;;;;;29.78;20.77;100367.42;1744801;82;21049;-42
2021/05/16 09:53:59;;;;;;;4.37;0.88;;;;;;;30.20;21.07;100361.84;1734184;82;22387;-43
2021/05/16 09:56:32;;;;;;;4.62;1.00;;;;;;;30.18;20.36;100358.98;1734292;82;20997;-42
2021/05/16 09:59:06;;;;;;;2.95;2.75;;;;;;;29.86;21.27;100357.78;1734488;82;21007;-43
2021/05/16 10:01:32;;;;;;;9.03;1.27;;;;;;;29.63;21.66;100367.15;1738410;82;21139;-43
2021/05/16 10:04:01;;;;;;;13.30;1.17;;;;;;;29.36;20.38;100359.58;1748639;82;21085;-43
2021/05/16 10:06:28;;;;;;;8.80;1.25;;;;;;;29.26;21.65;100358.81;1748932;82;20935;-43
2021/05/16 10:08:56;;;;;;;3.67;1.35;;;;;;;29.35;21.51;100358.39;1748963;82;21571;-42
2021/05/16 10:11:29;;;;;;;5.90;1.27;;;;;;;29.44;21.82;100358.85;1745347;82;21017;-42
2021/05/16 10:14:07;;;;;;;7.87;1.40;;;;;;;29.54;21.16;100362.25;1745699;82;21671;-43
2021/05/16 10:16:47;;;;;;;5.78;1.10;;;;;;;29.77;22.15;100347.56;1745535;82;21054;-43
2021/05/16 10:19:17;;;;;;;2.55;1.17;;;;;;;30.00;22.26;100341.21;1745694;81;20914;-42
2021/05/16 10:21:44;;;;;;;7.00;1.02;;;;;;;30.20;22.95;100345.83;1743180;81;21496;-42
2021/05/16 10:24:15;;;;;;;11.45;1.47;;;;;;;30.34;21.84;100344.39;1718814;82;21621;-42
2021/05/16 10:26:42;;;;;;;3.40;0.90;;;;;;;30.36;21.13;100343.73;1750911;82;21697;-41
2021/05/16 10:29:15;;;;;;;5.20;0.93;;;;;;;30.35;21.04;100341.23;1740705;82;21017;-42
2021/05/16 10:31:54;;;;;;;11.63;1.07;;;;;;;30.30;22.52;100340.86;1740812;82;20906;-42
2021/05/16 10:34:29;;;;;;;2.42;1.10;;;;;;;30.34;22.92;100339.05;1741793;82;20903;-42
2021/05/16 10:37:01;;;;;;;10.80;1.20;;;;;;;30.44;20.51;100336.73;1739215;82;20936;-42
2021/05/16 10:39:49;;;;;;;10.88;0.80;;;;;;;30.27;20.87;100338.03;1738912;82;21111;-41
2021/05/16 10:42:20;;;;;;;6.92;1.25;;;;;;;30.14;21.75;100336.29;1738561;82;20977;-43
2021/05/16 10:45:14;;;;;;;3.52;1.15;;;;;;;30.11;22.62;100338.80;1743199;82;21033;-43
2021/05/16 10:47:47;;;;;;;79.60;4.28;;;;;;;30.13;22.37;100326.13;1745747;82;21002;-43
2021/05/16 10:50:35;;;;;;;25.48;1.27;;;;;;;30.18;22.20;100325.15;1742478;81;21621;-43
2021/05/16 10:53:14;;;;;;;5.40;1.00;;;;;;;30.08;21.46;100317.27;1738540;82;21126;-43
2021/05/16 10:55:51;;;;;;;8.15;1.37;;;;;;;30.22;21.62;100317.67;1739015;82;21029;-43
2021/05/16 10:58:42;;;;;;;11.78;1.40;;;;;;;30.28;20.80;100311.68;1739108;82;21562;-42
2021/05/16 11:01:32;;;;;;;17.65;1.42;;;;;;;30.22;20.35;100315.00;1742823;82;20963;-42
2021/05/16 11:04:01;;;;;;;7.33;3.27;;;;;;;29.94;20.93;100313.33;1742953;82;20894;-43
2021/05/16 11:06:42;;;;;;;11.00;1.32;;;;;;;30.01;19.76;100310.91;1711799;82;21730;-42
2021/05/16 11:09:13;;;;;;;12.58;2.33;;;;;;;30.14;20.16;100302.94;1738838;82;20854;-42
2021/05/16 11:11:43;;;;;;;3.35;1.75;;;;;;;30.29;20.12;100301.83;1737314;81;21037;-42
2021/05/16 11:14:33;;;;;;;5.42;1.10;;;;;;;30.38;19.31;100303.55;1736214;82;21045;-43
2021/05/16 11:17:05;;;;;;;3.72;0.95;;;;;;;30.43;19.19;100291.87;1713980;83;20922;-42
2021/05/16 11:19:34;;;;;;;10.78;3.00;;;;;;;30.36;18.58;100282.85;1737289;82;21085;-42
2021/05/16 11:22:16;;;;;;;5.55;0.90;;;;;;;30.50;19.24;100290.22;1737341;82;20982;-43
2021/05/16 11:24:50;;;;;;;9.00;0.80;;;;;;;30.69;18.30;100286.95;1736217;82;21037;-42
2021/05/16 11:27:21;;;;;;;4.58;0.68;;;;;;;30.59;18.80;100280.39;1735966;82;20902;-42